Terminal Aerodrome Forecast
Issued by NWS Billings, MT

Home | Current Version | Previous Version | Text Only | Print | Product List | Glossary On
Versions: 1 2 3 4 5 6 7 8 9 10 11 12 13 14 15 16 17 18 19 20 21 22 23 24 25 26 27 28 29 30 31 32 33 34 35 36 37
000
FTUS45 KBYZ 151336 AAB
TAFMLS
TAF AMD
KMLS 151336Z 1514/1612 35012KT P6SM VCSH OVC010
     FM151800 34009KT P6SM BKN020
     FM160000 VRB04KT P6SM SCT020
     FM160700 12005KT P6SM SCT020=

USA.gov is the U.S. government's official web portal to all federal, state and local government web resources and services.